San Juan, PR

1:23 PM AST on August 26, 2016 (GMT -0400)
Luis Munoz Marin International | | Change Station

Elev 7 ft 18.43 °N, 66.01 °W | Updated 27 minutes ago

Light Rain
Light Rain
85 °F
Feels Like 95 °F
N
9
Wind Variable Wind from East

Today
High -- | Low -- °F
--% Chance of Precip.
Yesterday
High -- | Low -- °F
Precip. -- in
Pressure 29.95 in
Visibility 9.0 miles
Clouds Mostly Cloudy 2200 ft
Mostly Cloudy 4000 ft
Overcast 9000 ft
Heat Index 95 °F
Dew Point 77 °F
Humidity 77%
Rainfall 0.01 in
Snow Depth Not available.
6:08 AM 6:42 PM
Waning Crescent, 33% visible
METAR TJSJ 261656Z 09008KT 9SM -RA BKN022 BKN040 OVC090 29/25 A2995 RMK AO2 RAB42 SLP141 P0001 T02940250
Pressure 29.95 in
Visibility 9.0 miles
Clouds Mostly Cloudy 2200 ft
Mostly Cloudy 4000 ft
Overcast 9000 ft
Heat Index 95 °F
Dew Point 77 °F
Humidity 77%
Rainfall 0.01 in
Snow Depth Not available.
6:08 AM 6:42 PM
Waning Crescent, 33% visible
METAR TJSJ 261656Z 09008KT 9SM -RA BKN022 BKN040 OVC090 29/25 A2995 RMK AO2 RAB42 SLP141 P0001 T02940250

10-Day Weather Forecast

Almanac

Astronomy

Aug. 26, 2016 Rise Set
Actual Time
Civil Twilight
Nautical Twilight
Astronomical Twilight
Moon
Length of Visible Light
Length of Day
Tomorrow will be .
, % of the Moon is Illuminated

Today's Extremes

State Highs State Lows

Community

WunderPhotos

Upload Photos

1,935,145 photos uploaded!

WunderBlog® & News

Nearby

Air Quality

  Air Quality AQ Index Pollutant
Not available.

Snow Depth

Station Depth Elevation

Earthquake Activity

City Distance Mag. Time & Date
Minimum magnitude displayed is 2.5.

Coastal Water Temperatures

Place Temperature

Stations

Nearby Weather Stations

Station Location Temp. Windchill Dew Point Humidity Wind Precip. Elev Updated Type
                   

Watches & Warnings

There are currently no watches in effect.